Latest Weather Observations for Cape Moreton

IDQ60801

Issued at 7:02 am EST Wednesday 1 July 2015 (issued every 30 minutes, with the page automatically refreshed every 10 minutes)

About weather observations | Map of weather stations | Latest weather observations for QLD | Other Formats
Station Details ID: 040043 Name: CAPE MORETON LIGHTHOUSE Lat: -27.03 Lon: 153.47 Height: 99.9 m
Data from the previous 72 hours. | See also: Recent months at Cape Moreton
Date/Time
EST
Temp
°C
App
Temp
°C
Dew
Point
Rel
Hum
%
Delta-T
°C
Wind Press
QNH
hPa
Press
MSL
hPa
Rain
since 9 am
mm
Dir
 
Spd
km/h
Gust
km/h
Spd
kts
Gust
kts
01/07:00am 16.4 14.5 14.1 86 1.3 SSW 17 20 9 11 1023.6 1023.4 0.0
01/06:30am 16.2 14.5 14.6 90 0.9 SSW 17 19 9 10 1023.4 1023.2 0.0
01/06:00am 15.7 13.7 13.9 89 1.0 SW 17 20 9 11 1023.1 1022.9 0.0
01/05:30am 16.5 14.6 14.3 87 1.3 SSW 17 19 9 10 1022.9 1022.8 0.0
01/05:00am 16.7 15.4 14.9 89 1.0 SSW 15 19 8 10 1022.9 1022.8 0.0
01/04:30am 16.3 14.6 14.7 90 0.9 SSW 17 19 9 10 1022.8 1022.7 0.0
01/04:00am 16.3 14.4 14.3 88 1.1 SSW 17 20 9 11 1022.7 1022.6 0.0
01/03:30am 16.7 14.8 14.3 86 1.4 S 17 19 9 10 1022.8 1022.7 0.0
01/03:00am 16.9 15.0 14.2 84 1.5 SSW 17 19 9 10 1023.3 1023.1 0.0
01/02:30am 16.8 15.3 14.1 84 1.5 SW 15 19 8 10 1023.6 1023.4 0.0
01/02:00am 17.0 15.5 14.1 83 1.7 SSW 15 17 8 9 1023.7 1023.5 0.0
01/01:30am 16.8 15.3 14.3 85 1.4 SSW 15 17 8 9 1024.0 1023.8 0.0
01/01:00am 17.0 15.8 15.0 88 1.2 SW 15 19 8 10 1024.3 1024.1 0.0
01/12:30am 17.1 14.9 13.2 78 2.2 SW 17 20 9 11 1024.6 1024.4 0.0
01/12:00am 17.6 15.9 13.7 78 2.2 SW 15 15 8 8 1024.8 1024.6 0.0
 
Date/Time
EST
Temp
°C
App
Temp
°C
Dew
Point
Rel
Hum
%
Delta-T
°C
Wind Press
QNH
hPa
Press
MSL
hPa
Rain
since 9 am
mm
Dir
 
Spd
km/h
Gust
km/h
Spd
kts
Gust
kts
30/11:30pm 17.7 16.9 14.0 79 2.1 SSW 11 13 6 7 1024.8 1024.6 0.0
30/11:00pm 17.8 16.6 14.1 79 2.1 SSW 13 15 7 8 1025.0 1024.8 0.0
30/10:30pm 18.0 17.4 14.5 80 2.0 SSW 11 13 6 7 1025.1 1024.9 0.0
30/10:00pm 18.0 17.0 14.7 81 1.9 SSW 13 15 7 8 1025.4 1025.2 0.0
30/09:30pm 18.2 17.0 15.1 82 1.8 S 15 17 8 9 1025.4 1025.2 0.0
30/09:00pm 18.3 17.2 15.4 83 1.7 SSE 15 19 8 10 1025.3 1025.1 0.0
30/08:30pm 18.3 16.8 15.2 82 1.8 SSE 17 20 9 11 1025.2 1025.0 0.0
30/08:00pm 18.5 17.0 15.4 82 1.8 SSE 17 20 9 11 1025.2 1025.0 0.0
30/07:30pm 18.1 16.8 14.8 81 1.9 S 15 17 8 9 1024.9 1024.7 0.0
30/07:00pm 18.5 16.8 14.8 79 2.1 S 17 20 9 11 1024.7 1024.5 0.0
30/06:30pm 18.4 17.4 14.7 79 2.2 S 13 17 7 9 1024.6 1024.4 0.0
30/06:00pm 18.1 17.0 14.4 79 2.1 SSW 13 17 7 9 1024.4 1024.2 0.0
30/05:30pm 18.6 17.6 14.5 77 2.4 S 13 17 7 9 1024.0 1023.8 0.0
30/05:00pm 18.4 17.6 14.1 76 2.5 SSW 11 13 6 7 1024.1 1023.9 0.0
30/04:30pm 19.0 17.9 14.3 74 2.7 SSE 13 17 7 9 1024.1 1023.9 0.0
30/04:00pm 19.5 18.4 14.3 72 3.0 SSE 13 17 7 9 1024.1 1023.9 0.0
30/03:30pm 19.7 18.4 14.7 73 2.9 SSE 15 22 8 12 1024.1 1023.9 0.0
30/03:00pm 19.6 17.4 14.4 72 3.0 SE 19 22 10 12 1024.1 1023.9 0.0
30/02:30pm 20.3 18.7 14.9 71 3.2 SE 17 22 9 12 1024.2 1024.0 0.0
30/02:00pm 20.8 19.6 14.0 65 3.9 SSE 13 17 7 9 1024.4 1024.2 0.0
30/01:30pm 20.5 19.7 15.1 71 3.2 S 13 19 7 10 1024.6 1024.4 0.0
30/01:00pm 20.8 20.1 15.4 71 3.2 SSE 13 17 7 9 1024.9 1024.7 0.0
30/12:30pm 20.3 19.2 15.3 73 3.0 SSE 15 19 8 10 1025.1 1024.9 0.0
30/12:00pm 20.2 18.4 15.4 74 2.8 SSE 19 26 10 14 1025.7 1025.5 0.0
30/11:30am 20.1 17.9 14.9 72 3.1 SSE 20 24 11 13 1026.1 1025.9 0.0
30/11:00am 20.3 18.8 15.3 73 3.0 SSE 17 24 9 13 1026.5 1026.3 0.0
30/10:30am 19.6 18.6 15.5 77 2.4 S 15 20 8 11 1027.0 1026.8 0.0
30/10:00am 18.9 16.8 14.6 76 2.5 SSW 19 26 10 14 1027.3 1027.1 0.0
30/09:30am 19.2 17.6 15.1 77 2.4 S 17 26 9 14 1027.3 1027.1 0.0
30/09:00am 17.9 16.4 15.3 85 1.5 SW 17 20 9 11 1027.5 1027.3 3.0
30/08:30am 17.3 15.7 15.1 87 1.3 SW 17 22 9 12 1027.5 1027.3 3.0
30/08:00am 16.4 14.2 14.4 88 1.1 SW 19 26 10 14 1027.2 1027.0 3.0
30/07:30am 17.0 14.9 15.3 90 1.0 S 20 26 11 14 1026.5 1026.3 3.0
30/07:00am 15.5 13.0 14.2 92 0.7 SSW 20 24 11 13 1026.7 1026.5 3.0
30/06:30am 15.0 12.4 13.7 92 0.7 SW 20 24 11 13 1026.7 1026.5 3.0
30/06:00am 15.2 12.5 13.6 90 0.9 SSW 20 26 11 14 1026.7 1026.5 3.0
30/05:30am 15.4 12.9 13.6 89 1.0 SSW 19 24 10 13 1026.6 1026.4 3.0
30/05:00am 15.8 13.5 14.0 89 1.0 SSW 19 22 10 12 1026.6 1026.4 3.0
30/04:30am 15.4 13.0 13.8 90 0.9 SSW 19 22 10 12 1026.8 1026.6 3.0
30/04:00am 15.6 12.7 14.0 90 0.9 SSW 22 26 12 14 1026.8 1026.6 3.0
30/03:30am 16.9 14.8 15.2 90 1.0 S 20 30 11 16 1026.7 1026.5 3.0
30/03:00am 16.7 14.5 14.9 89 1.0 S 20 35 11 19 1027.1 1026.9 3.0
30/02:30am 16.5 14.4 14.7 89 1.0 SSW 19 26 10 14 1027.1 1026.9 3.0
30/02:00am 16.4 14.2 14.8 90 0.9 S 20 24 11 13 1027.2 1027.0 3.0
30/01:30am 16.2 13.2 14.7 91 0.9 SSW 24 32 13 17 1027.2 1027.0 3.0
30/01:00am 16.6 14.5 15.3 92 0.8 S 20 32 11 17 1027.4 1027.2 3.0
30/12:30am 16.9 13.9 15.8 93 0.6 S 26 33 14 18 1027.4 1027.2 3.0
30/12:00am 16.9 14.3 15.8 93 0.6 S 24 35 13 19 1027.3 1027.1 3.0
 
Date/Time
EST
Temp
°C
App
Temp
°C
Dew
Point
Rel
Hum
%
Delta-T
°C
Wind Press
QNH
hPa
Press
MSL
hPa
Rain
since 9 am
mm
Dir
 
Spd
km/h
Gust
km/h
Spd
kts
Gust
kts
29/11:30pm 16.1 13.1 14.8 92 0.8 SSW 24 30 13 16 1027.8 1027.6 3.0
29/11:00pm 16.3 13.2 14.5 89 1.0 SSW 24 33 13 18 1028.0 1027.8 3.0
29/10:30pm 17.4 14.0 14.7 84 1.6 S 26 35 14 19 1028.2 1028.0 3.0
29/10:13pm 18.7 13.3 14.0 74 2.7 SE 35 44 19 24 1028.3 1028.1 3.0
29/10:00pm 19.2 13.2 13.4 69 3.3 ESE 37 44 20 24 1028.1 1027.9 3.0
29/09:48pm 18.8 14.0 14.1 74 2.7 ESE 32 44 17 24 1028.0 1027.8 3.0
29/09:30pm 17.9 13.0 13.6 76 2.4 SE 32 43 17 23 1028.4 1028.2 3.0
29/09:26pm 18.5 13.1 13.8 74 2.7 ESE 35 43 19 23 1028.4 1028.2 3.0
29/09:00pm 19.3 13.2 13.0 67 3.6 ESE 37 44 20 24 1028.2 1028.0 3.0
29/08:30pm 19.5 13.8 13.0 66 3.7 ESE 35 41 19 22 1028.2 1028.0 3.0
29/08:00pm 19.4 14.2 12.9 66 3.7 ESE 32 37 17 20 1028.3 1028.1 3.0
29/07:30pm 19.4 14.2 12.9 66 3.7 ESE 32 39 17 21 1028.1 1027.9 3.0
29/07:00pm 19.4 13.7 12.9 66 3.7 ESE 35 43 19 23 1027.8 1027.6 3.0
29/06:30pm 19.4 13.4 13.3 68 3.5 ESE 37 44 20 24 1027.4 1027.2 3.0
29/06:00pm 19.4 13.9 13.6 69 3.3 ESE 35 43 19 23 1027.1 1026.9 3.0
29/05:30pm 19.1 13.6 13.5 70 3.2 ESE 35 39 19 21 1026.9 1026.7 3.0
29/05:00pm 19.5 14.1 13.9 70 3.2 ESE 35 44 19 24 1026.5 1026.3 3.0
29/04:30pm 19.4 14.0 14.0 71 3.1 ESE 35 43 19 23 1026.6 1026.4 3.0
29/04:00pm 19.5 13.5 13.4 68 3.5 ESE 37 43 20 23 1026.7 1026.5 3.0
29/03:30pm 19.7 14.9 13.9 69 3.4 ESE 32 39 17 21 1027.1 1026.9 3.0
29/03:00pm 19.1 14.0 13.7 71 3.1 ESE 33 39 18 21 1027.4 1027.2 3.0
29/02:30pm 19.1 14.2 14.4 74 2.7 ESE 33 41 18 22 1027.8 1027.6 3.0
29/02:00pm 18.2 16.6 16.5 90 1.0 SSE 20 32 11 17 1028.2 1028.0 3.0
29/01:30pm 17.6 14.6 15.9 90 1.0 SSE 26 35 14 19 1028.1 1027.9 2.8
29/01:00pm 17.7 14.6 16.6 93 0.7 SSE 28 37 15 20 1028.3 1028.1 2.8
29/12:47pm 17.7 15.0 16.6 93 0.7 SE 26 30 14 16 1028.3 1028.1 2.8
29/12:30pm 17.4 12.1 16.4 94 0.6 ESE 39 46 21 25 1028.2 1028.0 2.8
29/12:14pm 17.2 14.0 16.4 95 0.5 ESE 28 43 15 23 1028.4 1028.2 2.8
29/12:00pm 16.9 15.3 16.1 95 0.5 E 19 24 10 13 1028.7 1028.6 2.6
29/11:50am 16.9 13.6 16.1 95 0.5 ESE 28 33 15 18 1029.1 1029.0 2.6
29/11:30am 17.3 12.4 16.3 94 0.6 SSE 37 56 20 30 1029.0 1028.9 2.0
29/11:27am 17.4 12.9 16.4 94 0.6 SSE 35 48 19 26 1029.0 1028.9 2.0
29/11:00am 17.9 14.9 16.8 93 0.7 S 28 37 15 20 1029.5 1029.4 0.2
29/10:30am 17.6 14.8 16.3 92 0.8 S 26 33 14 18 1030.0 1029.9 0.2
29/10:00am 18.0 15.8 17.0 94 0.6 S 24 30 13 16 1030.3 1030.2 0.2
29/09:30am 17.1 14.7 16.3 95 0.5 S 24 35 13 19 1030.6 1030.5 0.2
29/09:00am 17.3 13.4 16.5 95 0.5 S 32 39 17 21 1030.1 1030.0 18.2
29/08:30am 17.3 13.9 16.7 96 0.4 SSE 30 39 16 21 1029.9 1029.8 18.2
29/08:00am 16.8 13.9 16.2 96 0.4 S 26 33 14 18 1029.7 1029.6 18.2
29/07:30am 16.7 14.6 16.1 96 0.4 SSE 22 32 12 17 1029.7 1029.6 17.4
29/07:00am 16.7 12.5 16.2 97 0.3 SE 33 44 18 24 1029.3 1029.2 17.2
29/06:30am 16.6 13.3 16.1 97 0.3 SSE 28 39 15 21 1029.0 1028.9 17.2
29/06:00am 16.6 12.6 16.3 98 0.2 SSE 32 39 17 21 1028.8 1028.7 17.2
29/05:30am 16.7 13.9 16.4 98 0.2 SSE 26 35 14 19 1028.4 1028.2 17.0
29/05:00am 16.6 12.1 16.3 98 0.2 SSE 35 48 19 26 1028.3 1028.1 16.8
29/04:30am 17.1 13.7 16.8 98 0.2 SSE 30 37 16 20 1028.0 1027.8 16.0
29/04:00am 16.8 14.8 16.5 98 0.2 S 22 28 12 15 1028.1 1027.9 16.0
29/03:30am 17.0 14.0 16.7 98 0.2 SSE 28 39 15 21 1028.3 1028.1 16.0
29/03:00am 16.1 13.8 15.6 97 0.3 SSW 22 28 12 15 1028.3 1028.1 16.0
29/02:30am 16.2 14.3 15.7 97 0.3 SSW 20 26 11 14 1028.6 1028.5 16.0
29/02:00am 15.9 13.9 15.4 97 0.3 SSW 20 24 11 13 1028.7 1028.6 16.0
29/01:30am 15.9 13.9 15.4 97 0.3 SW 20 24 11 13 1028.8 1028.7 16.0
29/01:00am 15.9 13.1 15.4 97 0.3 SSW 24 32 13 17 1029.0 1028.9 15.8
29/12:30am 16.1 14.1 15.6 97 0.3 SSW 20 28 11 15 1029.1 1029.0 15.8
29/12:00am 16.8 16.1 16.3 97 0.3 S 15 20 8 11 1029.2 1029.1 15.6
 
Date/Time
EST
Temp
°C
App
Temp
°C
Dew
Point
Rel
Hum
%
Delta-T
°C
Wind Press
QNH
hPa
Press
MSL
hPa
Rain
since 9 am
mm
Dir
 
Spd
km/h
Gust
km/h
Spd
kts
Gust
kts
28/11:30pm 16.0 14.2 15.5 97 0.3 SSW 19 22 10 12 1029.5 1029.4 15.6
28/11:00pm 16.2 14.5 15.7 97 0.3 SSW 19 20 10 11 1029.9 1029.8 15.4
28/10:30pm 16.3 15.7 15.7 96 0.4 S 13 17 7 9 1030.1 1030.0 13.4
28/10:00pm 16.5 15.2 15.9 96 0.4 SSW 17 22 9 12 1030.3 1030.2 11.8
28/09:30pm 16.3 13.9 15.5 95 0.5 SSW 22 30 12 16 1030.1 1030.0 10.6
28/09:00pm 17.0 16.2 16.0 94 0.6 SW 15 20 8 11 1029.9 1029.8 8.0
28/08:42pm 17.3 12.3 16.2 93 0.7 SE 37 50 20 27 1030.0 1029.9 7.2
28/08:32pm 17.5 14.3 16.4 93 0.7 S 28 48 15 26 1029.5 1029.4 6.6
28/08:30pm 17.5 15.1 16.4 93 0.7 S 24 35 13 19 1029.8 1029.7 6.6
28/08:00pm 17.4 16.1 15.9 91 0.9 SSW 17 22 9 12 1029.8 1029.7 6.4
28/07:30pm 18.2 17.7 16.0 87 1.3 SE 13 19 7 10 1029.7 1029.6 6.4
28/07:00pm 17.7 18.8 15.5 87 1.3 WNW 4 11 2 6 1029.3 1029.2 6.4
28/06:38pm 19.1 16.5 15.8 81 2.0 ESE 24 43 13 23 1028.8 1028.7 0.0
28/06:30pm 19.7 17.9 15.6 77 2.4 E 19 24 10 13 1029.1 1029.0 0.0
28/06:00pm 19.7 16.4 15.1 75 2.7 E 26 30 14 16 1028.5 1028.4 0.0
28/05:30pm 19.7 15.8 15.4 76 2.5 E 30 37 16 20 1028.2 1028.0 0.0
28/05:00pm 19.8 16.4 14.8 73 2.9 E 26 32 14 17 1028.0 1027.8 0.0
28/04:30pm 19.9 16.8 14.5 71 3.2 E 24 33 13 18 1028.0 1027.8 0.0
28/04:00pm 20.3 17.3 14.7 70 3.3 ESE 24 30 13 16 1027.9 1027.7 0.0
28/03:30pm 20.6 18.1 15.2 71 3.2 ESE 22 30 12 16 1027.8 1027.6 0.0
28/03:00pm 20.7 17.4 15.0 70 3.4 ESE 26 32 14 17 1027.6 1027.4 0.0
28/02:30pm 20.7 17.8 15.0 70 3.4 ESE 24 30 13 16 1027.6 1027.4 0.0
28/02:00pm 21.3 19.3 15.4 69 3.5 ESE 20 26 11 14 1027.8 1027.6 0.0
28/01:30pm 21.1 18.7 15.4 70 3.4 ESE 22 28 12 15 1027.7 1027.5 0.0
28/01:00pm 21.6 19.0 15.9 70 3.4 ESE 24 28 13 15 1027.8 1027.6 0.0
28/12:30pm 21.7 19.1 15.8 69 3.6 ESE 24 28 13 15 1028.1 1027.9 0.0
28/12:00pm 21.5 18.7 15.3 68 3.7 ESE 24 28 13 15 1028.4 1028.2 0.0
28/11:30am 21.4 19.2 14.8 66 3.9 ESE 20 24 11 13 1029.0 1028.9 0.0
28/11:00am 21.4 19.2 15.9 71 3.3 E 22 28 12 15 1029.4 1029.3 0.0
28/10:30am 21.0 19.0 15.5 71 3.3 ESE 20 24 11 13 1029.7 1029.6 0.0
28/10:00am 21.3 18.6 16.7 75 2.8 ESE 26 30 14 16 1029.9 1029.8 0.0
28/09:30am 20.8 18.3 16.2 75 2.8 ESE 24 28 13 15 1030.1 1030.0 0.0
28/09:00am 20.2 16.5 15.0 72 3.0 E 28 33 15 18 1030.0 1029.9 9.4
28/08:30am 20.4 16.4 16.2 77 2.5 ESE 32 37 17 20 1029.8 1029.7 9.4
28/08:00am 19.4 16.8 16.8 85 1.6 ENE 26 30 14 16 1029.6 1029.5 9.4
28/07:30am 18.6 14.9 16.9 90 1.0 E 32 41 17 22 1029.3 1029.2 9.4

Other Formats:

Comma delimited format used in spreadsheet applications
http://www.bom.gov.au/fwo/IDQ60801/IDQ60801.94594.axf

JavaScript Object Notation format (JSON) in row-major order
http://www.bom.gov.au/fwo/IDQ60801/IDQ60801.94594.json